createdAt,value
2019-02-19T00:00:47.092Z,3.33
2019-02-19T00:03:16.334Z,4.90
2019-02-19T00:05:45.278Z,4.83
2019-02-19T00:08:13.676Z,5.70
2019-02-19T00:10:42.190Z,6.10
2019-02-19T00:13:11.277Z,7.33
2019-02-19T00:15:39.689Z,5.47
2019-02-19T00:18:08.442Z,5.47
2019-02-19T00:20:37.261Z,5.77
2019-02-19T00:23:05.727Z,6.70
2019-02-19T00:25:34.140Z,5.27
2019-02-19T00:28:02.571Z,7.83
2019-02-19T00:30:31.308Z,5.60
2019-02-19T00:32:59.742Z,6.80
2019-02-19T00:35:28.818Z,5.97
2019-02-19T00:37:57.234Z,5.73
2019-02-19T00:40:25.942Z,5.67
2019-02-19T00:42:55.095Z,6.00
2019-02-19T00:45:23.844Z,7.83
2019-02-19T00:47:52.625Z,5.70
2019-02-19T00:50:21.069Z,5.60
2019-02-19T00:52:49.795Z,5.47
2019-02-19T00:55:18.309Z,6.20
2019-02-19T00:57:46.945Z,5.37
2019-02-19T01:00:15.868Z,6.07
2019-02-19T01:02:44.624Z,5.30
2019-02-19T01:05:13.137Z,5.23
2019-02-19T01:07:41.902Z,6.53
2019-02-19T01:10:10.510Z,5.53
2019-02-19T01:12:39.329Z,5.20
2019-02-19T01:15:08.910Z,4.13
2019-02-19T01:17:37.707Z,4.43
2019-02-19T01:20:07.074Z,5.80
2019-02-19T01:22:35.773Z,5.37
2019-02-19T01:25:11.419Z,4.93
2019-02-19T01:27:40.336Z,5.30
2019-02-19T01:30:10.506Z,4.97
2019-02-19T01:32:39.522Z,6.40
2019-02-19T01:35:09.468Z,6.30
2019-02-19T01:37:38.255Z,7.17
2019-02-19T01:40:07.397Z,5.93
2019-02-19T01:42:35.909Z,6.77
2019-02-19T01:45:04.508Z,6.97
2019-02-19T01:47:33.373Z,6.37
2019-02-19T01:50:01.818Z,6.67
2019-02-19T01:52:31.698Z,6.20
2019-02-19T01:55:00.448Z,5.90
2019-02-19T01:57:28.902Z,7.57
2019-02-19T01:59:58.070Z,6.87
2019-02-19T02:02:26.793Z,8.40
2019-02-19T02:04:57.248Z,8.30
2019-02-19T02:07:26.026Z,9.37
2019-02-19T02:09:55.013Z,9.33
2019-02-19T02:12:23.762Z,8.07
2019-02-19T02:14:52.120Z,9.20
2019-02-19T02:17:20.814Z,8.93
2019-02-19T02:19:49.282Z,8.43
2019-02-19T02:22:17.703Z,9.30
2019-02-19T02:24:46.377Z,8.30
2019-02-19T02:27:14.756Z,7.57
2019-02-19T02:29:43.161Z,7.80
2019-02-19T02:32:11.537Z,7.90
2019-02-19T02:34:40.208Z,7.80
2019-02-19T02:37:09.076Z,8.90
2019-02-19T02:39:37.481Z,8.77
2019-02-19T02:42:06.358Z,7.10
2019-02-19T02:44:34.798Z,9.20
2019-02-19T02:47:03.195Z,7.93
2019-02-19T02:49:31.958Z,8.63
2019-02-19T02:52:00.526Z,10.00
2019-02-19T02:54:29.010Z,9.40
2019-02-19T02:56:58.138Z,10.13
2019-02-19T02:59:26.664Z,9.07
2019-02-19T03:01:55.099Z,9.07
2019-02-19T03:04:24.242Z,7.67
2019-02-19T03:07:10.026Z,8.27
2019-02-19T03:09:38.813Z,9.60
2019-02-19T03:12:07.581Z,10.03
2019-02-19T03:14:36.010Z,9.13
2019-02-19T03:17:04.784Z,8.20
2019-02-19T03:19:33.509Z,8.20
2019-02-19T03:22:01.914Z,9.43
2019-02-19T03:24:30.397Z,8.13
2019-02-19T03:26:59.007Z,8.20
2019-02-19T03:29:27.469Z,7.67
2019-02-19T03:31:56.260Z,7.57
2019-02-19T03:34:24.742Z,7.23
2019-02-19T03:36:53.169Z,7.33
2019-02-19T03:39:21.741Z,6.93
2019-02-19T03:41:51.066Z,8.23
2019-02-19T03:44:19.811Z,7.50
2019-02-19T03:46:48.539Z,7.13
2019-02-19T03:49:17.067Z,8.60
2019-02-19T03:51:45.583Z,8.17
2019-02-19T03:54:14.434Z,7.70
2019-02-19T03:56:43.316Z,7.60
2019-02-19T03:59:11.700Z,7.20
2019-02-19T04:01:40.628Z,7.60
2019-02-19T04:04:09.278Z,6.97
2019-02-19T04:06:38.039Z,8.10
2019-02-19T04:09:06.733Z,8.20
2019-02-19T04:11:35.562Z,9.00
2019-02-19T04:14:04.242Z,8.50
2019-02-19T04:16:32.927Z,7.80
2019-02-19T04:19:01.584Z,8.60
2019-02-19T04:21:30.300Z,7.63
2019-02-19T04:23:59.115Z,7.40
2019-02-19T04:26:27.531Z,8.20
2019-02-19T04:28:55.986Z,8.87
2019-02-19T04:31:24.386Z,7.87
2019-02-19T04:33:53.210Z,9.17
2019-02-19T04:36:22.418Z,9.67
2019-02-19T04:38:50.853Z,8.90
2019-02-19T04:41:19.384Z,9.73
2019-02-19T04:43:47.989Z,10.03
2019-02-19T04:46:16.463Z,8.03
2019-02-19T04:48:45.223Z,9.63
2019-02-19T04:51:14.047Z,8.73
2019-02-19T04:53:42.494Z,7.07
2019-02-19T04:56:10.909Z,9.50
2019-02-19T04:58:39.659Z,9.40
2019-02-19T05:01:08.114Z,8.50
2019-02-19T05:03:36.583Z,8.57
2019-02-19T05:06:05.337Z,8.37
2019-02-19T05:08:33.815Z,8.83
2019-02-19T05:11:02.370Z,7.50
2019-02-19T05:13:30.771Z,8.07
2019-02-19T05:15:59.496Z,8.07
2019-02-19T05:18:27.916Z,8.20
2019-02-19T05:20:56.706Z,8.37
2019-02-19T05:23:25.422Z,7.67
2019-02-19T05:25:54.646Z,8.53
2019-02-19T05:28:23.486Z,7.47
2019-02-19T05:30:52.659Z,7.43
2019-02-19T05:33:21.109Z,7.60
2019-02-19T05:35:49.865Z,9.47
2019-02-19T05:38:18.625Z,9.33
2019-02-19T05:40:47.290Z,7.87
2019-02-19T05:43:16.105Z,10.70
2019-02-19T05:45:44.874Z,10.57
2019-02-19T05:48:13.339Z,8.70
2019-02-19T05:50:41.919Z,9.57
2019-02-19T05:53:10.414Z,10.17
2019-02-19T05:55:39.654Z,9.70
2019-02-19T05:58:08.561Z,9.00
2019-02-19T06:00:37.023Z,10.17
2019-02-19T06:03:06.379Z,8.77
2019-02-19T06:05:35.321Z,10.47
2019-02-19T06:08:03.877Z,7.67
2019-02-19T06:10:32.684Z,9.43
2019-02-19T06:13:01.375Z,9.00
2019-02-19T06:15:29.924Z,9.00
2019-02-19T06:17:58.714Z,8.50
2019-02-19T06:20:27.594Z,8.43
2019-02-19T06:22:56.405Z,8.77
2019-02-19T06:25:25.551Z,7.57
2019-02-19T06:27:54.911Z,9.70
2019-02-19T06:30:24.287Z,8.23
2019-02-19T06:32:53.312Z,9.43
2019-02-19T06:35:22.394Z,10.17
2019-02-19T06:37:51.412Z,9.40
2019-02-19T06:40:27.007Z,8.50
2019-02-19T06:42:56.611Z,8.77
2019-02-19T06:45:25.270Z,7.60
2019-02-19T06:47:54.449Z,10.17
2019-02-19T06:50:24.178Z,10.03
2019-02-19T06:52:54.799Z,9.37
2019-02-19T06:55:24.150Z,9.17
2019-02-19T06:57:52.872Z,10.30
2019-02-19T07:00:21.625Z,8.43
2019-02-19T07:03:08.192Z,9.23
2019-02-19T07:05:37.298Z,9.87
2019-02-19T07:08:06.519Z,9.30
2019-02-19T07:10:35.853Z,11.03
2019-02-19T07:13:04.509Z,10.20
2019-02-19T07:15:33.534Z,9.30
2019-02-19T07:18:02.122Z,8.63
2019-02-19T07:20:31.210Z,8.90
2019-02-19T07:22:59.846Z,10.40
2019-02-19T07:25:29.016Z,9.90
2019-02-19T07:27:57.862Z,10.57
2019-02-19T07:30:26.469Z,10.63
2019-02-19T07:32:55.366Z,8.90
2019-02-19T07:35:24.138Z,9.50
2019-02-19T13:40:16.107Z,3.60
2019-02-19T13:42:45.537Z,4.13
2019-02-19T13:45:14.862Z,2.80
2019-02-19T13:47:44.091Z,4.00
2019-02-19T13:50:14.736Z,3.80
2019-02-19T13:53:02.246Z,3.40
2019-02-19T13:55:40.838Z,3.47
2019-02-19T13:58:10.256Z,4.13
2019-02-19T14:00:41.262Z,4.43
2019-02-19T14:03:10.723Z,3.20
2019-02-19T14:05:39.779Z,2.80
2019-02-19T14:08:14.481Z,3.00
2019-02-19T14:10:39.994Z,3.30
2019-02-19T14:13:08.974Z,3.70
2019-02-19T14:15:57.125Z,3.30
2019-02-19T14:18:47.270Z,4.20
2019-02-19T14:21:29.951Z,3.70
2019-02-19T14:24:20.967Z,3.60
2019-02-19T14:27:03.643Z,2.90
2019-02-19T14:30:06.874Z,3.60
2019-02-19T14:32:53.449Z,3.83
2019-02-19T14:35:49.066Z,4.03
2019-02-19T14:38:35.993Z,5.03
2019-02-19T14:41:42.167Z,4.00
2019-02-19T14:44:39.018Z,4.07
2019-02-19T14:47:25.638Z,4.40
2019-02-19T14:50:32.345Z,4.60
2019-02-19T14:53:26.534Z,4.40
2019-02-19T14:56:23.832Z,4.87
2019-02-19T14:59:17.635Z,4.50
2019-02-19T15:02:06.075Z,3.53
2019-02-19T15:05:03.564Z,4.43
2019-02-19T15:07:55.015Z,5.20
2019-02-19T15:11:01.562Z,4.07
2019-02-19T15:13:40.676Z,4.30
2019-02-19T15:16:34.629Z,4.00
2019-02-19T15:19:20.679Z,4.33
2019-02-19T15:22:20.925Z,5.40
2019-02-19T15:25:07.984Z,5.10
2019-02-19T15:27:46.855Z,4.57
2019-02-19T15:30:41.430Z,4.67
2019-02-19T15:33:42.014Z,5.13
2019-02-19T15:36:48.569Z,4.40
2019-02-19T15:39:38.400Z,3.90
2019-02-19T15:42:29.575Z,4.13
2019-02-19T15:45:16.176Z,5.10
2019-02-19T15:48:02.756Z,4.43
2019-02-19T15:50:49.551Z,4.77
2019-02-19T15:53:38.037Z,4.30
2019-02-19T15:56:22.912Z,4.27
2019-02-19T15:59:10.599Z,4.40
2019-02-19T16:01:52.266Z,5.83
2019-02-19T16:04:40.841Z,4.13
2019-02-19T16:07:29.048Z,4.53
2019-02-19T16:10:17.415Z,4.07
2019-02-19T16:13:00.720Z,5.17
2019-02-19T16:15:48.826Z,4.80
2019-02-19T16:18:36.980Z,4.33
2019-02-19T16:21:24.987Z,4.17
2019-02-19T16:24:11.479Z,5.80
2019-02-19T16:27:05.803Z,5.30
2019-02-19T16:29:44.618Z,5.63
2019-02-19T16:32:24.112Z,5.07
2019-02-19T16:35:18.386Z,4.80
2019-02-19T16:38:03.764Z,4.73
2019-02-19T16:40:43.249Z,6.20
2019-02-19T16:43:59.765Z,4.73
2019-02-19T16:46:46.420Z,4.20
2019-02-19T16:49:25.463Z,6.10
2019-02-19T16:52:10.102Z,5.20
2019-02-19T16:54:48.978Z,6.77
2019-02-19T16:57:38.823Z,4.63
2019-02-19T17:00:13.518Z,6.40
2019-02-19T17:02:48.172Z,7.53
2019-02-19T17:05:42.390Z,6.30
2019-02-19T17:08:37.060Z,5.40
2019-02-19T17:11:19.592Z,7.17
2019-02-19T17:14:03.307Z,5.93
2019-02-19T17:16:50.317Z,6.03
2019-02-19T17:19:54.824Z,7.00
2019-02-19T17:22:38.999Z,4.90
2019-02-19T17:25:37.231Z,5.60
2019-02-19T17:28:28.838Z,5.83
2019-02-19T17:31:19.832Z,5.50
2019-02-19T17:33:57.996Z,6.10
2019-02-19T17:36:38.518Z,5.90
2019-02-19T17:39:25.342Z,6.43
2019-02-19T17:42:05.279Z,6.80
2019-02-19T17:44:48.070Z,7.23
2019-02-19T17:47:24.544Z,6.27
2019-02-19T17:50:21.673Z,6.83
2019-02-19T17:53:14.843Z,6.33
2019-02-19T17:56:06.307Z,7.37
2019-02-19T17:59:00.709Z,6.40
2019-02-19T18:01:48.895Z,6.87
2019-02-19T18:04:49.841Z,7.07
2019-02-19T18:07:44.500Z,7.67
2019-02-19T18:10:35.115Z,7.40
2019-02-19T18:13:35.424Z,7.63
2019-02-19T18:16:18.633Z,7.23
2019-02-19T18:18:53.152Z,6.90
2019-02-19T18:21:22.515Z,8.07
2019-02-19T18:23:52.170Z,8.40
2019-02-19T18:26:21.857Z,7.90
2019-02-19T18:28:54.534Z,8.17
2019-02-19T18:31:24.220Z,8.60
2019-02-19T18:34:05.736Z,8.60
2019-02-19T18:36:52.335Z,8.30
2019-02-19T18:39:22.033Z,8.00
2019-02-19T18:41:51.122Z,7.37
2019-02-19T18:44:20.202Z,8.50
2019-02-19T18:46:49.550Z,9.47
2019-02-19T18:49:18.655Z,8.47
2019-02-19T18:51:47.686Z,9.87
2019-02-19T18:54:16.710Z,10.20
2019-02-19T18:56:45.973Z,10.00
2019-02-19T18:59:15.274Z,9.60
2019-02-19T19:01:44.265Z,11.00
2019-02-19T19:04:13.188Z,11.10
2019-02-19T19:06:42.235Z,10.97
2019-02-19T19:09:11.459Z,10.67
2019-02-19T19:11:42.076Z,10.60
2019-02-19T19:14:11.566Z,11.00
2019-02-19T19:16:40.954Z,10.97
2019-02-19T19:19:10.270Z,12.00
2019-02-19T19:21:39.224Z,11.57
2019-02-19T19:24:08.715Z,11.23
2019-02-19T19:26:37.931Z,11.10
2019-02-19T19:29:07.292Z,10.50
2019-02-19T19:31:36.330Z,12.07
2019-02-19T19:34:05.699Z,12.87
2019-02-19T19:36:34.940Z,10.87
2019-02-19T19:39:05.176Z,14.00
2019-02-19T19:41:34.825Z,12.60
2019-02-19T19:44:04.142Z,12.20
2019-02-19T19:46:33.254Z,12.20
2019-02-19T19:49:02.799Z,11.40
2019-02-19T19:51:31.801Z,11.97
2019-02-19T19:54:01.031Z,12.63
2019-02-19T19:56:30.350Z,11.67
2019-02-19T19:58:59.598Z,12.97
2019-02-19T20:01:28.564Z,12.27
2019-02-19T20:03:57.812Z,13.47
2019-02-19T20:06:27.022Z,13.60
2019-02-19T20:08:56.346Z,12.50
2019-02-19T20:11:25.638Z,12.00
2019-02-19T20:13:55.121Z,13.23
2019-02-19T20:16:24.107Z,13.90
2019-02-19T20:18:53.427Z,14.73
2019-02-19T20:21:26.729Z,11.60
2019-02-19T20:23:53.698Z,13.23
2019-02-19T20:26:22.735Z,15.13
2019-02-19T20:28:51.968Z,12.83
2019-02-19T20:31:21.644Z,13.20
2019-02-19T20:33:51.262Z,13.37
2019-02-19T20:36:20.579Z,13.80
2019-02-19T20:38:49.650Z,14.03
2019-02-19T20:41:18.713Z,13.80
2019-02-19T20:43:48.137Z,14.87
2019-02-19T20:46:17.446Z,14.57
2019-02-19T20:48:47.438Z,14.40
2019-02-19T20:51:16.636Z,14.77
2019-02-19T20:53:45.899Z,13.97
2019-02-19T20:56:15.162Z,15.07
2019-02-19T20:58:44.442Z,14.60
2019-02-19T21:01:13.715Z,16.10
2019-02-19T21:03:44.177Z,13.83
2019-02-19T21:06:13.139Z,14.37
2019-02-19T21:08:42.383Z,13.73
2019-02-19T21:11:11.410Z,15.67
2019-02-19T21:13:40.975Z,15.43
2019-02-19T21:16:10.095Z,15.10
2019-02-19T21:18:39.352Z,15.33
2019-02-19T21:21:08.285Z,16.50
2019-02-19T21:23:37.546Z,14.63
2019-02-19T21:26:06.757Z,14.90
2019-02-19T21:28:35.957Z,14.67
2019-02-19T21:31:04.914Z,15.27
2019-02-19T21:33:33.856Z,15.60
2019-02-19T21:36:02.905Z,14.53
2019-02-19T21:38:32.092Z,13.37
2019-02-19T21:41:01.059Z,15.17
2019-02-19T21:43:29.963Z,15.23
2019-02-19T21:45:59.223Z,15.00
2019-02-19T21:48:28.409Z,14.30
2019-02-19T21:50:57.650Z,15.00
2019-02-19T21:53:26.654Z,15.27
2019-02-19T21:55:55.901Z,14.90
2019-02-19T21:58:24.901Z,14.43
2019-02-19T22:00:53.931Z,14.90
2019-02-19T22:03:22.844Z,16.50
2019-02-19T22:05:51.874Z,14.57
2019-02-19T22:08:21.181Z,16.03
2019-02-19T22:10:50.167Z,15.90
2019-02-19T22:13:19.766Z,15.17
2019-02-19T22:15:48.770Z,15.50
2019-02-19T22:18:18.325Z,15.60
2019-02-19T22:20:55.322Z,14.90
2019-02-19T22:23:24.295Z,15.87
2019-02-19T22:25:53.303Z,18.53
2019-02-19T22:28:23.016Z,16.63
2019-02-19T22:30:52.095Z,16.10
2019-02-19T22:33:21.172Z,15.97
2019-02-19T22:35:50.827Z,15.47
2019-02-19T22:38:19.978Z,17.63
2019-02-19T22:40:55.012Z,15.10
2019-02-19T22:43:19.668Z,16.70
2019-02-19T22:45:48.712Z,17.17
2019-02-19T22:48:18.288Z,16.13
2019-02-19T22:50:47.226Z,16.43
2019-02-19T22:53:34.126Z,14.70
2019-02-19T22:56:12.374Z,16.40
2019-02-19T22:58:41.522Z,18.40
2019-02-19T23:01:20.531Z,15.40
2019-02-19T23:03:49.930Z,15.40
